In Rescue
 
Open Full Screen Window  High Contrast Mode
Wind Gusting 00 knots
04
July 23, 2019 12:18 AM CDT
Weather Information
Wind Direction
  270 °
Wind Speed
  04 kt (5 mph)
Wind Gust
  00 kt (0 mph)
Altimeter
30.28 in
Visibility
10 SM
Temperature
15° C
59° F
Dewpoint
13° C
55° F
Humidity
88%
1hr Rain Fall
00.00 in.
24hr Rain Fall
00.00 in.
Sky Condition
Clear
VFR

METAR KGDB 230518Z AUTO 27004KT 10SM CLR 15/13 A3028 RMK AO2 T01480132

FAA Disclaimer: The data displayed is for advisory purposes only and is not to be used for flight planning or operations.